createdAt,value
2022-10-19T00:01:09.190Z,99229.50
2022-10-19T00:03:36.498Z,99232.28
2022-10-19T00:06:15.706Z,99230.66
2022-10-19T00:08:43.681Z,99236.09
2022-10-19T00:11:12.050Z,99237.19
2022-10-19T00:13:39.207Z,99233.88
2022-10-19T00:16:12.240Z,99227.69
2022-10-19T00:18:40.270Z,99233.78
2022-10-19T00:21:09.491Z,99233.00
2022-10-19T00:23:36.816Z,99233.88
2022-10-19T00:26:04.443Z,99232.16
2022-10-19T00:28:31.304Z,99242.75
2022-10-19T00:31:02.880Z,99245.41
2022-10-19T00:33:29.633Z,99249.84
2022-10-19T00:35:56.570Z,99255.34
2022-10-19T00:38:23.344Z,99264.31
2022-10-19T00:40:50.306Z,99265.22
2022-10-19T00:43:20.309Z,99268.06
2022-10-19T00:45:48.306Z,99275.22
2022-10-19T00:48:25.996Z,99270.19
2022-10-19T00:50:55.827Z,99277.34
2022-10-19T00:53:25.890Z,99265.38
2022-10-19T00:55:53.403Z,99256.72
2022-10-19T00:58:20.291Z,99256.88
2022-10-19T01:00:47.435Z,99262.25
2022-10-19T01:03:14.537Z,99260.63
2022-10-19T01:05:41.584Z,99261.72
2022-10-19T01:08:10.057Z,99255.81
2022-10-19T01:10:51.590Z,99266.47
2022-10-19T01:13:42.710Z,99258.59
2022-10-19T01:16:22.514Z,99257.91
2022-10-19T01:19:01.663Z,99254.63
2022-10-19T01:21:39.279Z,99250.53
2022-10-19T01:24:32.667Z,99246.91
2022-10-19T01:27:09.971Z,99235.53
2022-10-19T01:29:54.893Z,99234.09
2022-10-19T01:32:46.741Z,99234.16
2022-10-19T01:35:26.180Z,99236.03
2022-10-19T01:38:07.646Z,99236.91
2022-10-19T01:40:56.091Z,99247.72
2022-10-19T01:43:41.833Z,99239.00
2022-10-19T01:46:13.350Z,99236.44
2022-10-19T01:48:51.460Z,99228.56
2022-10-19T01:51:25.042Z,99228.66
2022-10-19T01:53:57.354Z,99220.06
2022-10-19T01:56:26.999Z,99219.38
2022-10-19T01:58:58.038Z,99220.41
2022-10-19T02:01:28.021Z,99208.16
2022-10-19T02:03:56.571Z,99216.09
2022-10-19T02:06:23.883Z,99212.66
2022-10-19T02:08:53.362Z,99214.56
2022-10-19T02:11:21.841Z,99229.72
2022-10-19T02:13:54.522Z,99222.56
2022-10-19T02:16:27.843Z,99221.72
2022-10-19T02:18:56.442Z,99227.00
2022-10-19T02:21:23.780Z,99232.19
2022-10-19T02:23:53.402Z,99229.66
2022-10-19T02:26:22.025Z,99228.72
2022-10-19T02:28:49.845Z,99226.84
2022-10-19T02:31:17.125Z,99224.19
2022-10-19T02:33:44.362Z,99226.78
2022-10-19T02:36:11.248Z,99229.31
2022-10-19T02:38:38.418Z,99222.41
2022-10-19T02:41:23.818Z,99224.19
2022-10-19T02:43:58.075Z,99219.69
2022-10-19T02:46:36.927Z,99207.47
2022-10-19T02:49:06.783Z,99213.53
2022-10-19T02:51:36.599Z,99202.00
2022-10-19T02:54:06.092Z,99199.44
2022-10-19T02:56:34.654Z,99196.16
2022-10-19T02:59:02.416Z,99204.53
2022-10-19T03:01:29.209Z,99206.78
2022-10-19T03:03:56.485Z,99208.16
2022-10-19T03:06:23.275Z,99198.81
2022-10-19T03:08:51.042Z,99204.34
2022-10-19T03:11:17.853Z,99201.88
2022-10-19T03:13:45.221Z,99204.56
2022-10-19T03:16:13.716Z,99195.84
2022-10-19T03:18:40.776Z,99202.22
2022-10-19T03:21:10.789Z,99195.13
2022-10-19T03:23:38.996Z,99201.44
2022-10-19T03:26:08.752Z,99205.09
2022-10-19T03:28:38.469Z,99202.59
2022-10-19T03:31:05.490Z,99201.94
2022-10-19T03:33:32.542Z,99208.22
2022-10-19T03:36:25.230Z,99203.94
2022-10-19T03:38:54.628Z,99208.59
2022-10-19T03:41:22.973Z,99207.97
2022-10-19T03:43:50.332Z,99209.03
2022-10-19T03:46:18.134Z,99212.69
2022-10-19T03:48:45.550Z,99197.75
2022-10-19T03:51:18.159Z,99201.25
2022-10-19T03:53:46.596Z,99207.41
2022-10-19T03:56:17.548Z,99213.53
2022-10-19T03:58:46.624Z,99208.94
2022-10-19T04:01:19.226Z,99212.31
2022-10-19T04:03:46.666Z,99213.03
2022-10-19T04:06:19.610Z,99209.47
2022-10-19T04:08:50.179Z,99212.81
2022-10-19T04:11:19.276Z,99195.97
2022-10-19T04:13:48.062Z,99192.47
2022-10-19T04:16:14.958Z,99199.38
2022-10-19T04:18:42.030Z,99195.75
2022-10-19T04:21:40.614Z,99195.50
2022-10-19T04:24:10.697Z,99189.22
2022-10-19T04:26:43.441Z,99176.84
2022-10-19T04:29:10.925Z,99177.63
2022-10-19T04:31:38.789Z,99179.44
2022-10-19T04:34:07.179Z,99180.03
2022-10-19T04:36:34.405Z,99170.25
2022-10-19T04:39:01.429Z,99165.97
2022-10-19T04:41:28.213Z,99173.91
2022-10-19T04:43:58.206Z,99172.13
2022-10-19T04:46:26.477Z,99163.34
2022-10-19T04:48:54.883Z,99162.47
2022-10-19T04:51:23.203Z,99163.28
2022-10-19T04:53:51.423Z,99167.06
2022-10-19T04:56:21.823Z,99157.31
2022-10-19T04:58:49.213Z,99160.84
2022-10-19T05:01:18.770Z,99155.69
2022-10-19T05:03:46.451Z,99157.41
2022-10-19T05:06:14.970Z,99155.78
2022-10-19T05:08:42.313Z,99155.69
2022-10-19T05:11:14.857Z,99154.00
2022-10-19T05:13:43.503Z,99150.34
2022-10-19T05:16:12.879Z,99152.19
2022-10-19T05:18:40.712Z,99159.13
2022-10-19T05:21:12.830Z,99164.19
2022-10-19T05:23:41.334Z,99156.19
2022-10-19T05:26:14.048Z,99156.97
2022-10-19T05:28:41.301Z,99158.66
2022-10-19T05:31:20.903Z,99155.09
2022-10-19T05:33:48.172Z,99161.25
2022-10-19T05:36:16.830Z,99162.81
2022-10-19T05:38:48.647Z,99161.88
2022-10-19T05:41:15.961Z,99164.59
2022-10-19T05:43:43.507Z,99167.38
2022-10-19T05:46:12.767Z,99164.97
2022-10-19T05:48:40.872Z,99169.25
2022-10-19T05:51:10.846Z,99173.06
2022-10-19T05:56:07.598Z,99175.22
2022-10-19T05:58:35.705Z,99166.44
2022-10-19T06:01:03.570Z,99172.63
2022-10-19T06:03:31.112Z,99173.50
2022-10-19T06:05:58.489Z,99177.78
2022-10-19T06:08:26.163Z,99169.00
2022-10-19T06:10:52.981Z,99175.94
2022-10-19T06:13:20.469Z,99175.22
2022-10-19T06:15:51.033Z,99178.56
2022-10-19T06:18:18.012Z,99179.19
2022-10-19T06:20:44.836Z,99183.47
2022-10-19T06:23:11.794Z,99181.78
2022-10-19T06:25:38.687Z,99178.50
2022-10-19T06:28:05.829Z,99171.31
2022-10-19T06:30:32.706Z,99178.97
2022-10-19T06:32:59.998Z,99172.91
2022-10-19T06:35:26.888Z,99174.00
2022-10-19T06:37:56.605Z,99181.94
2022-10-19T06:40:24.841Z,99183.03
2022-10-19T06:42:52.055Z,99176.09
2022-10-19T06:45:18.910Z,99190.53
2022-10-19T06:47:48.985Z,99191.16
2022-10-19T06:50:15.913Z,99187.16
2022-10-19T06:52:42.991Z,99190.25
2022-10-19T06:55:09.997Z,99190.38
2022-10-19T06:57:37.198Z,99195.28
2022-10-19T07:00:09.211Z,99188.97
2022-10-19T07:02:36.254Z,99193.34
2022-10-19T07:05:06.970Z,99194.97
2022-10-19T07:07:34.958Z,99185.56
2022-10-19T07:10:02.315Z,99194.19
2022-10-19T07:12:29.395Z,99196.81
2022-10-19T07:14:56.248Z,99203.81
2022-10-19T07:17:23.234Z,99205.84
2022-10-19T07:19:49.999Z,99199.47
2022-10-19T07:22:21.191Z,99198.19
2022-10-19T07:24:52.295Z,99213.47
2022-10-19T07:27:19.250Z,99207.16
2022-10-19T07:29:46.029Z,99206.66
2022-10-19T07:32:12.979Z,99213.09
2022-10-19T07:34:39.752Z,99209.47
2022-10-19T07:37:06.840Z,99208.56
2022-10-19T07:39:33.586Z,99204.66
2022-10-19T07:42:00.542Z,99205.19
2022-10-19T07:44:27.934Z,99204.59
2022-10-19T07:46:54.978Z,99205.00
2022-10-19T07:49:22.519Z,99205.47
2022-10-19T07:51:53.935Z,99202.09
2022-10-19T07:54:21.491Z,99202.47
2022-10-19T07:56:48.443Z,99201.19
2022-10-19T07:59:17.294Z,99190.50
2022-10-19T08:01:45.250Z,99194.25
2022-10-19T08:06:59.311Z,99190.13
2022-10-19T08:09:52.935Z,99182.13
2022-10-19T08:12:15.491Z,99188.31
2022-10-19T08:14:42.635Z,99186.47
2022-10-19T08:17:12.089Z,99183.75
2022-10-19T08:19:43.442Z,99180.03
2022-10-19T08:22:11.007Z,99181.88
2022-10-19T08:24:38.090Z,99176.25
2022-10-19T08:27:05.222Z,99175.03
2022-10-19T08:29:32.189Z,99175.41
2022-10-19T08:31:59.668Z,99174.44
2022-10-19T08:34:26.478Z,99180.63
2022-10-19T08:36:53.923Z,99169.16
2022-10-19T08:39:20.703Z,99179.09
2022-10-19T08:42:12.734Z,99174.03
2022-10-19T08:45:02.576Z,99174.22
2022-10-19T08:47:50.609Z,99168.16
2022-10-19T08:50:21.927Z,99174.09
2022-10-19T08:53:04.122Z,99174.88
2022-10-19T08:55:49.807Z,99168.25
2022-10-19T08:58:30.389Z,99172.50
2022-10-19T09:01:10.096Z,99165.66
2022-10-19T09:03:56.609Z,99169.63
2022-10-19T09:06:31.166Z,99181.69
2022-10-19T09:08:59.336Z,99183.06
2022-10-19T09:11:32.759Z,99174.53
2022-10-19T09:14:18.540Z,99181.31
2022-10-19T09:16:46.412Z,99172.47
2022-10-19T09:19:22.952Z,99181.88
2022-10-19T09:21:55.629Z,99177.31
2022-10-19T09:24:25.481Z,99172.47
2022-10-19T09:26:55.511Z,99183.97
2022-10-19T09:29:28.578Z,99182.59
2022-10-19T09:34:37.403Z,99178.66
2022-10-19T09:37:04.278Z,99174.63
2022-10-19T09:39:31.779Z,99178.00
2022-10-19T09:42:07.429Z,99186.97
2022-10-19T09:44:34.838Z,99166.69
2022-10-19T09:47:39.889Z,99166.50
2022-10-19T09:50:36.411Z,99173.06
2022-10-19T09:53:05.086Z,99170.75
2022-10-19T09:56:13.716Z,99162.38
2022-10-19T09:58:48.055Z,99173.69
2022-10-19T10:01:43.222Z,99179.00
2022-10-19T10:04:19.350Z,99178.00
2022-10-19T10:06:48.613Z,99184.44
2022-10-19T10:09:18.090Z,99180.03
2022-10-19T10:11:49.620Z,99175.44
2022-10-19T10:14:28.776Z,99177.38
2022-10-19T10:17:06.928Z,99178.16
2022-10-19T10:19:35.658Z,99180.69
2022-10-19T10:22:04.478Z,99176.16
2022-10-19T10:24:34.168Z,99167.88
2022-10-19T10:27:04.312Z,99173.19
2022-10-19T10:29:33.871Z,99181.66
2022-10-19T10:32:06.615Z,99178.66
2022-10-19T10:34:50.132Z,99177.50
2022-10-19T10:37:40.016Z,99186.69
2022-10-19T10:40:28.473Z,99177.47
2022-10-19T10:43:08.838Z,99175.72
2022-10-19T10:45:44.105Z,99170.44
2022-10-19T10:48:39.060Z,99171.28
2022-10-19T10:51:19.800Z,99169.75
2022-10-19T10:53:47.033Z,99163.22
2022-10-19T10:56:26.105Z,99169.09
2022-10-19T10:59:04.006Z,99151.34
2022-10-19T11:01:39.705Z,99155.69
2022-10-19T11:04:22.819Z,99149.41
2022-10-19T11:07:01.358Z,99149.47
2022-10-19T11:09:43.134Z,99148.06
2022-10-19T11:12:13.989Z,99151.88
2022-10-19T11:14:49.920Z,99138.44
2022-10-19T11:17:22.486Z,99151.53
2022-10-19T11:19:52.330Z,99153.72
2022-10-19T11:22:34.851Z,99150.41
2022-10-19T11:25:32.870Z,99147.03
2022-10-19T11:28:08.985Z,99134.81
2022-10-19T11:31:15.039Z,99126.00
2022-10-19T11:33:53.825Z,99136.09
2022-10-19T11:36:45.961Z,99136.94
2022-10-19T11:39:34.300Z,99127.66
2022-10-19T11:42:07.471Z,99139.72
2022-10-19T11:45:06.620Z,99140.50
2022-10-19T11:47:53.815Z,99131.59
2022-10-19T11:50:32.011Z,99137.41
2022-10-19T11:53:04.968Z,99131.47
2022-10-19T11:55:31.754Z,99131.06
2022-10-19T11:58:46.355Z,99124.59
2022-10-19T12:01:28.206Z,99126.81
2022-10-19T12:04:39.914Z,99118.81
2022-10-19T12:07:22.960Z,99117.06
2022-10-19T12:10:17.041Z,99117.84
2022-10-19T12:12:49.233Z,99114.78
2022-10-19T12:15:26.283Z,99100.28
2022-10-19T12:17:57.207Z,99105.22
2022-10-19T12:20:42.935Z,99105.59
2022-10-19T12:23:31.119Z,99097.91
2022-10-19T12:26:00.886Z,99094.81
2022-10-19T12:28:38.816Z,99095.66
2022-10-19T12:31:07.213Z,99097.72
2022-10-19T12:33:54.334Z,99097.44
2022-10-19T12:36:33.470Z,99100.47
2022-10-19T12:39:15.869Z,99096.00
2022-10-19T12:42:20.158Z,99092.56
2022-10-19T12:45:07.115Z,99087.47
2022-10-19T12:47:34.696Z,99096.69
2022-10-19T12:50:01.673Z,99095.91
2022-10-19T12:52:36.689Z,99085.69
2022-10-19T12:55:15.698Z,99099.78
2022-10-19T12:57:57.895Z,99095.66
2022-10-19T13:00:36.447Z,99090.53
2022-10-19T13:03:25.149Z,99102.50
2022-10-19T13:05:59.322Z,99113.53
2022-10-19T13:08:38.875Z,99111.22
2022-10-19T13:11:06.956Z,99113.78
2022-10-19T13:14:00.627Z,99104.63
2022-10-19T13:16:30.384Z,99108.34
2022-10-19T13:19:00.402Z,99101.09
2022-10-19T13:21:46.030Z,99100.44
2022-10-19T13:24:25.231Z,99103.50
2022-10-19T13:27:03.899Z,99115.19
2022-10-19T13:29:39.828Z,99108.28
2022-10-19T13:32:43.405Z,99098.72
2022-10-19T13:35:28.926Z,99105.09
2022-10-19T13:38:21.156Z,99097.31
2022-10-19T13:40:51.113Z,99098.41
2022-10-19T13:43:25.289Z,99098.25
2022-10-19T13:46:06.477Z,99097.56
2022-10-19T13:49:00.968Z,99096.81
2022-10-19T13:51:45.210Z,99095.19
2022-10-19T13:54:17.638Z,99092.56
2022-10-19T13:57:02.975Z,99095.13
2022-10-19T13:59:44.334Z,99093.63
2022-10-19T14:02:37.796Z,99091.16
2022-10-19T14:05:35.195Z,99092.38
2022-10-19T14:08:33.434Z,99095.19
2022-10-19T14:11:02.289Z,99098.31
2022-10-19T14:13:29.470Z,99085.16
2022-10-19T14:15:58.737Z,99096.16
2022-10-19T14:18:36.707Z,99096.06
2022-10-19T14:21:07.164Z,99099.41
2022-10-19T14:23:37.195Z,99086.34
2022-10-19T14:26:05.814Z,99090.94
2022-10-19T14:28:33.718Z,99090.06
2022-10-19T14:31:07.098Z,99091.72
2022-10-19T14:33:38.232Z,99091.22
2022-10-19T14:36:07.750Z,99090.38
2022-10-19T14:38:43.430Z,99088.13
2022-10-19T14:41:21.914Z,99093.56
2022-10-19T14:43:48.957Z,99092.78
2022-10-19T14:46:16.597Z,99088.56
2022-10-19T14:48:49.683Z,99081.53
2022-10-19T14:51:37.421Z,99083.63
2022-10-19T14:54:11.604Z,99082.91
2022-10-19T14:56:52.258Z,99085.72
2022-10-19T14:59:22.239Z,99079.16
2022-10-19T15:01:55.531Z,99078.31
2022-10-19T15:04:26.634Z,99083.66
2022-10-19T15:06:55.343Z,99098.66
2022-10-19T15:09:37.751Z,99094.44
2022-10-19T15:12:17.832Z,99105.09
2022-10-19T15:14:46.185Z,99099.91
2022-10-19T15:17:31.249Z,99101.81
2022-10-19T15:20:01.362Z,99099.47
2022-10-19T15:22:39.876Z,99101.25
2022-10-19T15:25:06.839Z,99107.16
2022-10-19T15:27:45.522Z,99107.22
2022-10-19T15:30:18.387Z,99109.13
2022-10-19T15:32:48.433Z,99106.78
2022-10-19T15:35:34.104Z,99110.56
2022-10-19T15:38:16.707Z,99109.00
2022-10-19T15:40:46.277Z,99110.16
2022-10-19T15:43:32.534Z,99117.44
2022-10-19T15:46:12.784Z,99105.16
2022-10-19T15:48:44.368Z,99108.72
2022-10-19T15:51:23.347Z,99109.00
2022-10-19T15:54:02.473Z,99116.97
2022-10-19T15:56:32.659Z,99118.72
2022-10-19T15:59:01.915Z,99126.06
2022-10-19T16:01:32.195Z,99137.66
2022-10-19T16:03:59.838Z,99183.44
2022-10-19T16:06:30.511Z,99180.28
2022-10-19T16:08:59.006Z,99185.81
2022-10-19T16:11:27.132Z,99189.78
2022-10-19T16:13:53.975Z,99195.97
2022-10-19T16:16:26.509Z,99184.19
2022-10-19T16:18:54.896Z,99193.38
2022-10-19T16:21:25.616Z,99183.09
2022-10-19T16:23:52.969Z,99182.41
2022-10-19T16:26:21.179Z,99185.13
2022-10-19T16:28:48.852Z,99182.47
2022-10-19T16:31:17.141Z,99189.50
2022-10-19T16:33:44.160Z,99186.88
2022-10-19T16:36:11.375Z,99190.31
2022-10-19T16:38:38.226Z,99188.59
2022-10-19T16:41:08.075Z,99192.31
2022-10-19T16:43:35.797Z,99194.94
2022-10-19T16:46:03.458Z,99192.31
2022-10-19T16:48:31.079Z,99190.59
2022-10-19T16:51:07.022Z,99202.97
2022-10-19T16:53:34.997Z,99207.41
2022-10-19T16:56:13.215Z,99205.97
2022-10-19T16:58:40.701Z,99209.41
2022-10-19T17:01:12.615Z,99219.09
2022-10-19T17:03:39.493Z,99211.47
2022-10-19T17:06:08.173Z,99215.81
2022-10-19T17:08:53.028Z,99210.78
2022-10-19T17:11:31.879Z,99224.97
2022-10-19T17:14:02.011Z,99226.81
2022-10-19T17:16:31.470Z,99230.53
2022-10-19T17:19:00.220Z,99240.31
2022-10-19T17:21:30.016Z,99244.72
2022-10-19T17:23:59.693Z,99253.47
2022-10-19T17:26:42.053Z,99255.47
2022-10-19T17:29:09.605Z,99255.34
2022-10-19T17:31:38.489Z,99251.97
2022-10-19T17:34:06.019Z,99264.16
2022-10-19T17:36:36.677Z,99268.59
2022-10-19T17:39:11.057Z,99269.44
2022-10-19T17:41:38.147Z,99274.88
2022-10-19T17:44:05.499Z,99274.97
2022-10-19T17:46:34.534Z,99288.84
2022-10-19T17:49:01.402Z,99279.91
2022-10-19T17:51:30.782Z,99283.56
2022-10-19T17:54:09.150Z,99289.63
2022-10-19T17:56:37.437Z,99296.59
2022-10-19T17:59:04.638Z,99290.44
2022-10-19T18:01:31.683Z,99291.38
2022-10-19T18:03:58.834Z,99293.28
2022-10-19T18:06:32.016Z,99307.25
2022-10-19T18:09:00.682Z,99305.47
2022-10-19T18:11:36.056Z,99303.69
2022-10-19T18:14:04.142Z,99309.81
2022-10-19T18:16:34.868Z,99313.25
2022-10-19T18:19:02.912Z,99317.59
2022-10-19T18:21:32.788Z,99311.38
2022-10-19T18:24:01.824Z,99323.63
2022-10-19T18:26:30.046Z,99322.97
2022-10-19T18:28:58.081Z,99315.84
2022-10-19T18:31:31.740Z,99324.75
2022-10-19T18:34:01.699Z,99326.41
2022-10-19T18:36:29.294Z,99331.69
2022-10-19T18:38:59.334Z,99328.19
2022-10-19T18:41:27.276Z,99339.53
2022-10-19T18:43:56.453Z,99339.50
2022-10-19T18:46:23.969Z,99339.69
2022-10-19T18:48:51.255Z,99345.72
2022-10-19T18:51:20.718Z,99351.16
2022-10-19T18:53:47.513Z,99354.81
2022-10-19T18:56:17.023Z,99345.97
2022-10-19T18:58:44.016Z,99361.06
2022-10-19T19:01:13.925Z,99361.19
2022-10-19T19:03:43.026Z,99363.91
2022-10-19T19:06:12.622Z,99368.47
2022-10-19T19:08:39.707Z,99362.81
2022-10-19T19:11:34.353Z,99370.09
2022-10-19T19:14:22.174Z,99375.69
2022-10-19T19:16:49.209Z,99372.59
2022-10-19T19:19:17.816Z,99386.75
2022-10-19T19:21:45.694Z,99386.28
2022-10-19T19:24:14.920Z,99393.50
2022-10-19T19:26:44.083Z,99387.75
2022-10-19T19:29:10.969Z,99389.66
2022-10-19T19:31:39.349Z,99396.84
2022-10-19T19:34:06.459Z,99399.59
2022-10-19T19:36:33.516Z,99402.44
2022-10-19T19:39:00.750Z,99406.09
2022-10-19T19:41:28.957Z,99410.50
2022-10-19T19:43:58.076Z,99406.06
2022-10-19T19:46:25.227Z,99410.44
2022-10-19T19:49:02.204Z,99416.38
2022-10-19T19:51:31.084Z,99423.22
2022-10-19T19:53:58.259Z,99426.56
2022-10-19T19:56:25.317Z,99429.06
2022-10-19T19:58:57.388Z,99429.84
2022-10-19T20:01:24.803Z,99435.91
2022-10-19T20:03:52.171Z,99450.63
2022-10-19T20:06:23.532Z,99437.56
2022-10-19T20:08:53.517Z,99443.81
2022-10-19T20:11:22.017Z,99442.13
2022-10-19T20:13:48.874Z,99456.34
2022-10-19T20:16:18.580Z,99446.13
2022-10-19T20:18:47.330Z,99457.78
2022-10-19T20:21:15.362Z,99463.44
2022-10-19T20:23:46.719Z,99465.38
2022-10-19T20:26:23.165Z,99462.09
2022-10-19T20:28:50.944Z,99465.78
2022-10-19T20:31:19.097Z,99464.38
2022-10-19T20:33:47.573Z,99467.91
2022-10-19T20:36:25.719Z,99466.41
2022-10-19T20:38:55.719Z,99466.53
2022-10-19T20:41:25.539Z,99470.13
2022-10-19T20:43:53.820Z,99468.53
2022-10-19T20:46:27.004Z,99470.47
2022-10-19T20:48:55.589Z,99481.09
2022-10-19T20:51:30.985Z,99481.41
2022-10-19T20:54:00.345Z,99488.53
2022-10-19T20:56:30.784Z,99489.50
2022-10-19T21:01:36.821Z,99498.53
2022-10-19T21:04:05.989Z,99500.34
2022-10-19T21:06:35.222Z,99494.34
2022-10-19T21:09:02.068Z,99502.25
2022-10-19T21:11:32.342Z,99497.97
2022-10-19T21:14:05.196Z,99491.94
2022-10-19T21:16:35.525Z,99499.72
2022-10-19T21:19:04.577Z,99505.88
2022-10-19T21:21:35.678Z,99511.06
2022-10-19T21:24:04.908Z,99497.94
2022-10-19T21:26:33.916Z,99506.53
2022-10-19T21:29:01.731Z,99507.25
2022-10-19T21:31:29.004Z,99501.09
2022-10-19T21:33:55.771Z,99502.72
2022-10-19T21:36:25.316Z,99507.97
2022-10-19T21:38:52.080Z,99499.34
2022-10-19T21:41:25.331Z,99503.72
2022-10-19T21:43:54.418Z,99503.66
2022-10-19T21:46:22.710Z,99504.56
2022-10-19T21:48:50.492Z,99502.91
2022-10-19T21:51:17.379Z,99508.22
2022-10-19T21:53:44.508Z,99511.81
2022-10-19T21:56:11.498Z,99504.22
2022-10-19T21:58:38.343Z,99505.25
2022-10-19T22:01:08.670Z,99508.03
2022-10-19T22:03:35.410Z,99507.28
2022-10-19T22:06:02.463Z,99512.72
2022-10-19T22:08:29.355Z,99505.88
2022-10-19T22:10:56.570Z,99509.47
2022-10-19T22:13:23.299Z,99513.97
2022-10-19T22:15:50.273Z,99514.13
2022-10-19T22:18:17.029Z,99519.47
2022-10-19T22:20:44.012Z,99521.25
2022-10-19T22:23:10.761Z,99518.75
2022-10-19T22:25:37.877Z,99521.41
2022-10-19T22:28:04.741Z,99530.22
2022-10-19T22:30:31.766Z,99531.22
2022-10-19T22:32:58.581Z,99533.06
2022-10-19T22:35:25.659Z,99533.06
2022-10-19T22:37:52.528Z,99536.53
2022-10-19T22:40:19.633Z,99534.06
2022-10-19T22:43:42.781Z,99535.84
2022-10-19T22:47:06.260Z,99542.00
2022-10-19T22:50:29.223Z,99551.59
2022-10-19T22:52:59.354Z,99539.53
2022-10-19T22:55:26.226Z,99545.72
2022-10-19T22:57:53.305Z,99552.72
2022-10-19T23:00:20.271Z,99554.50
2022-10-19T23:02:47.336Z,99539.72
2022-10-19T23:05:14.225Z,99543.25
2022-10-19T23:07:41.301Z,99554.59
2022-10-19T23:10:08.502Z,99544.28
2022-10-19T23:12:35.541Z,99550.38
2022-10-19T23:15:02.379Z,99558.22
2022-10-19T23:17:29.518Z,99553.91
2022-10-19T23:19:56.462Z,99550.50
2022-10-19T23:34:17.904Z,99581.28
2022-10-19T23:36:44.849Z,99575.22
2022-10-19T23:39:11.915Z,99582.16
2022-10-19T23:41:38.730Z,99574.38
2022-10-19T23:44:06.094Z,99586.56
2022-10-19T23:46:32.842Z,99582.25
2022-10-19T23:48:59.806Z,99583.97
2022-10-19T23:51:26.574Z,99590.94
2022-10-19T23:53:53.832Z,99586.69
2022-10-19T23:56:26.260Z,99591.94
2022-10-19T23:58:54.272Z,99587.63
